Main page
METAR-TAF:

METAR-TAF

Airports :

Ngaoundéré Airport

Ngaoundéré, Cameroon

latitude: 07-21N, longitude: 013-34E, elevation: 1114 m

Current weather observation

The report was made 17 hours and 4 minutes ago, at 14:00 UTC
Wind 6 kt from the West
Temperature 21°C
Humidity 88%
Pressure 1016 hPa
Visibility: 8000 m
Broken clouds at a height of 1000 ft
Few clouds at a height of 1200 ft, Cumulonimbus.
light rain

METAR: FKKN 121400Z 28006KT 8000 -RA BKN010 FEW012CB 21/19 Q1016

Time: 08:04 (07:04 UTC)


TAF: missing

Weather observations and forecasts of more than 4000 airports (METAR and TAF reports).

The available stations are represented by yellow and red dots on the map.

Hover mouse over dot to see the name of the station.

Then click to see weather observations and forecasts.

To change the map : click on the green buttons with a black cross to zoom in, on the green button with a dash to zoom out, or on the green arrows for adjacent maps.


METAR-TAF: